Time;durP1;ratioP1;P1;durP2;ratioP2;P2;SDS_P1;SDS_P2;PMS_P1;PMS_P2;Temp;Humidity;BMP_temperature;BMP_pressure;BME280_temperature;BME280_humidity;BME280_pressure;Samples;Min_cycle;Max_cycle;Signal;HPM_P1;HPM_P2
2021/12/27 00:01:11;;;;;;;6.97;2.20;;;18.80;38.20;;;;;;5091174;28;20072;-67
2021/12/27 00:03:38;;;;;;;7.00;1.50;;;19.00;46.90;;;;;;5090866;28;20121;-66
2021/12/27 00:06:09;;;;;;;9.93;3.03;;;18.70;38.60;;;;;;5092364;28;20066;-67
2021/12/27 00:08:41;;;;;;;20.35;10.05;;;18.70;38.80;;;;;;5090812;28;20093;-67
2021/12/27 00:11:09;;;;;;;4.78;1.90;;;18.70;38.90;;;;;;5075718;28;20452;-68
2021/12/27 00:13:35;;;;;;;18.55;10.10;;;18.60;39.00;;;;;;5091073;28;20156;-67
2021/12/27 00:16:02;;;;;;;4.05;1.50;;;18.60;39.30;;;;;;5091803;28;20097;-66
2021/12/27 00:18:29;;;;;;;6.15;2.92;;;18.50;39.50;;;;;;5091892;28;20073;-65
2021/12/27 00:20:56;;;;;;;13.40;2.20;;;18.40;40.00;;;;;;5090791;28;20087;-63
2021/12/27 00:23:23;;;;;;;13.73;2.10;;;18.30;40.20;;;;;;5089817;28;20084;-64
2021/12/27 00:25:49;;;;;;;6.07;2.10;;;18.30;40.40;;;;;;5088783;28;20134;-67
2021/12/27 00:28:16;;;;;;;5.45;1.92;;;18.20;40.30;;;;;;5080404;28;20076;-66
2021/12/27 00:30:42;;;;;;;9.80;1.88;;;18.10;40.50;;;;;;5096399;28;20076;-65
2021/12/27 00:33:09;;;;;;;8.20;2.72;;;18.10;40.50;;;;;;5094199;28;20104;-65
2021/12/27 00:35:36;;;;;;;9.75;2.40;;;18.00;40.20;;;;;;5102276;28;20092;-65
2021/12/27 00:38:04;;;;;;;10.85;3.00;;;18.00;40.30;;;;;;5100427;28;20100;-65
2021/12/27 00:40:30;;;;;;;8.70;3.35;;;17.90;40.70;;;;;;5090967;28;20073;-67
2021/12/27 00:42:57;;;;;;;9.95;3.33;;;17.80;40.80;;;;;;5092236;28;20073;-67
2021/12/27 00:45:23;;;;;;;12.10;4.55;;;17.80;41.20;;;;;;5108925;28;20096;-67
2021/12/27 00:47:50;;;;;;;11.48;4.32;;;17.80;41.00;;;;;;5101509;28;20076;-67
2021/12/27 00:50:16;;;;;;;10.82;4.72;;;17.70;41.20;;;;;;5090026;28;20122;-67
2021/12/27 00:52:43;;;;;;;10.13;4.20;;;17.60;41.40;;;;;;5090145;28;20100;-65
2021/12/27 00:55:12;;;;;;;12.95;4.25;;;17.60;41.70;;;;;;5090211;28;20059;-66
2021/12/27 00:57:38;;;;;;;13.98;4.28;;;17.50;41.90;;;;;;5090242;28;20096;-68
2021/12/27 01:00:17;;;;;;;14.68;3.95;;;17.50;42.20;;;;;;5092961;28;20073;-66
2021/12/27 01:02:45;;;;;;;12.20;4.32;;;17.40;42.50;;;;;;5105843;28;20060;-67
2021/12/27 01:05:12;;;;;;;7.38;3.28;;;17.30;42.70;;;;;;5089840;28;20108;-67
2021/12/27 01:07:39;;;;;;;8.50;3.50;;;17.30;43.10;;;;;;5089752;28;20118;-70
2021/12/27 01:17:45;;;;;;;18.67;4.55;;;17.00;44.30;;;;;;5090826;28;20072;-67
2021/12/27 01:20:16;;;;;;;9.50;4.47;;;17.00;44.70;;;;;;5090838;28;20582;-67
2021/12/27 01:22:43;;;;;;;10.02;3.88;;;16.90;44.90;;;;;;5089574;28;20080;-66
2021/12/27 01:25:12;;;;;;;15.90;3.65;;;16.90;45.00;;;;;;5090284;28;20108;-66
2021/12/27 01:27:40;;;;;;;13.60;3.92;;;16.90;45.30;;;;;;5089438;28;20126;-66
2021/12/27 01:30:10;;;;;;;8.02;3.70;;;16.80;45.50;;;;;;5091161;28;20109;-68
2021/12/27 01:32:43;;;;;;;12.80;4.53;;;16.80;45.60;;;;;;5105157;28;20563;-67
2021/12/27 01:35:09;;;;;;;13.00;4.70;;;16.70;45.60;;;;;;5097301;28;20568;-66
2021/12/27 01:37:36;;;;;;;;;;;16.70;45.90;;;;;;5094005;28;20075;-67
2021/12/27 01:40:04;;;;;;;15.43;4.85;;;16.60;46.00;;;;;;5073266;28;19960;-66
2021/12/27 01:42:30;;;;;;;11.80;4.63;;;16.60;46.40;;;;;;5089592;28;20518;-66
2021/12/27 01:44:57;;;;;;;15.15;5.85;;;16.50;46.30;;;;;;5089251;28;20553;-65
2021/12/27 01:47:23;;;;;;;16.10;5.65;;;16.40;46.70;;;;;;5099321;28;20076;-67
2021/12/27 01:49:50;;;;;;;16.75;5.75;;;16.40;46.80;;;;;;5089002;28;20461;-67
2021/12/27 01:52:16;;;;;;;36.13;14.90;;;16.30;47.10;;;;;;5089276;28;20107;-67
2021/12/27 01:54:43;;;;;;;51.97;25.73;;;16.20;47.20;;;;;;5089140;28;20454;-69
2021/12/27 01:57:09;;;;;;;72.85;35.40;;;16.20;47.40;;;;;;5104297;28;20436;-68
2021/12/27 01:59:36;;;;;;;19.35;10.68;;;16.50;83.70;;;;;;5096248;28;20072;-67
2021/12/27 02:02:02;;;;;;;48.08;26.70;;;16.00;49.90;;;;;;5089200;28;20103;-67
2021/12/27 02:04:29;;;;;;;82.82;37.78;;;16.10;47.80;;;;;;5088937;28;20103;-67
2021/12/27 02:06:55;;;;;;;;;;;16.00;47.90;;;;;;5089297;28;20084;-66
2021/12/27 02:09:30;;;;;;;36.90;21.00;;;16.00;48.30;;;;;;5089102;28;19971;-66
2021/12/27 02:11:56;;;;;;;19.30;8.05;;;15.90;48.40;;;;;;5090630;28;20072;-66
2021/12/27 02:14:22;;;;;;;21.52;10.25;;;15.80;48.60;;;;;;5086582;28;20092;-66
2021/12/27 02:16:48;;;;;;;;;;;15.80;49.10;;;;;;5089929;28;20540;-65
2021/12/27 02:19:15;;;;;;;22.27;9.13;;;15.70;50.70;;;;;;5098648;28;20017;-66
2021/12/27 02:21:41;;;;;;;12.57;5.60;;;15.60;51.50;;;;;;5099459;28;20097;-65
2021/12/27 02:24:08;;;;;;;;;;;15.50;51.70;;;;;;5092054;28;20100;-66
2021/12/27 02:26:35;;;;;;;19.63;7.03;;;15.40;52.00;;;;;;5090387;28;19953;-65
2021/12/27 02:29:01;;;;;;;13.98;6.28;;;15.40;52.30;;;;;;5094834;28;20074;-65
2021/12/27 02:31:28;;;;;;;;;;;15.30;52.80;;;;;;5093103;28;20056;-65
2021/12/27 02:33:54;;;;;;;12.98;3.92;;;15.60;57.60;;;;;;5094717;28;19970;-65
2021/12/27 02:36:24;;;;;;;28.23;9.45;;;15.20;53.40;;;;;;5077530;28;20093;-65
2021/12/27 02:38:50;;;;;;;15.32;5.82;;;15.10;53.60;;;;;;5089645;28;20442;-68
2021/12/27 02:41:16;;;;;;;;;;;15.10;54.10;;;;;;5090544;28;20083;-67
2021/12/27 02:43:43;;;;;;;15.35;3.75;;;15.00;54.50;;;;;;5089895;28;19960;-65
2021/12/27 02:46:12;;;;;;;15.70;3.30;;;15.00;54.80;;;;;;5089591;28;20079;-65
2021/12/27 02:48:48;;;;;;;18.38;4.10;;;14.90;55.10;;;;;;5090503;28;20069;-65
2021/12/27 02:51:17;;;;;;;14.75;4.68;;;14.80;54.90;;;;;;5096399;28;20068;-67
2021/12/27 02:53:45;;;;;;;20.30;5.95;;;14.90;56.00;;;;;;5089847;28;20122;-65
2021/12/27 02:56:11;;;;;;;15.52;5.72;;;14.90;55.80;;;;;;5095548;28;20114;-66
2021/12/27 02:58:38;;;;;;;11.77;5.55;;;14.90;56.20;;;;;;5091742;28;20071;-66
2021/12/27 03:01:09;;;;;;;;;;;14.80;56.50;;;;;;5094013;28;20521;-66
2021/12/27 03:03:36;;;;;;;24.40;9.63;;;14.80;56.10;;;;;;5091676;28;19964;-67
2021/12/27 03:06:03;;;;;;;17.85;8.60;;;14.80;56.70;;;;;;5089096;28;20644;-67
2021/12/27 03:08:31;;;;;;;21.88;9.73;;;14.80;57.10;;;;;;5089647;28;20110;-67
2021/12/27 03:10:59;;;;;;;24.60;10.70;;;14.80;57.20;;;;;;5071206;28;20176;-64
2021/12/27 03:13:34;;;;;;;24.08;12.07;;;14.70;57.50;;;;;;5089757;28;20077;-66
2021/12/27 03:16:15;;;;;;;28.10;12.73;;;14.60;57.90;;;;;;5106111;28;20189;-66
2021/12/27 03:18:48;;;;;;;35.33;11.10;;;14.60;58.60;;;;;;5073654;28;20179;-63
2021/12/27 03:21:15;;;;;;;30.17;10.73;;;14.60;59.40;;;;;;5088912;28;20114;-67
2021/12/27 03:23:43;;;;;;;21.38;8.55;;;14.50;58.90;;;;;;5102802;28;20209;-67
2021/12/27 03:26:10;;;;;;;17.42;8.20;;;14.60;99.10;;;;;;5102093;28;20071;-66
2021/12/27 03:28:38;;;;;;;18.20;7.20;;;14.40;70.90;;;;;;5100386;28;20050;-67
2021/12/27 03:31:06;;;;;;;20.58;8.07;;;14.40;58.70;;;;;;5092494;28;20175;-66
2021/12/27 03:33:33;;;;;;;16.02;7.32;;;14.20;59.00;;;;;;5074820;28;20107;-66
2021/12/27 03:36:02;;;;;;;30.38;6.97;;;14.20;59.40;;;;;;5092348;28;20097;-68
2021/12/27 03:38:38;;;;;;;20.65;7.10;;;14.10;59.50;;;;;;5090740;28;20138;-68
2021/12/27 03:41:07;;;;;;;15.27;6.00;;;14.10;59.60;;;;;;5094658;28;20490;-71
2021/12/27 03:43:33;;;;;;;15.05;4.90;;;14.00;59.90;;;;;;5094361;28;20497;-69
2021/12/27 03:45:59;;;;;;;35.65;13.43;;;13.90;60.10;;;;;;5094805;28;20085;-69
2021/12/27 03:48:25;;;;;;;;;;;13.90;60.10;;;;;;5103548;28;20072;-68
2021/12/27 03:50:53;;;;;;;14.68;5.25;;;13.90;60.60;;;;;;5092324;28;20029;-68
2021/12/27 03:53:19;;;;;;;13.02;4.00;;;13.90;60.60;;;;;;5090948;28;20071;-71
2021/12/27 03:55:46;;;;;;;8.18;3.38;;;13.80;60.60;;;;;;5092051;28;20118;-69
2021/12/27 03:58:24;;;;;;;;;;;13.80;61.20;;;;;;5092653;28;20073;-69
2021/12/27 04:03:21;;;;;;;15.48;4.80;;;13.60;61.50;;;;;;5093459;28;20030;-68
2021/12/27 04:05:48;;;;;;;17.13;5.47;;;13.60;62.90;;;;;;5075297;28;20483;-69
2021/12/27 04:08:17;;;;;;;15.57;5.05;;;13.60;61.80;;;;;;5090522;28;20092;-68
2021/12/27 04:10:45;;;;;;;11.57;4.07;;;13.60;61.60;;;;;;5091800;28;20473;-70
2021/12/27 04:13:12;;;;;;;7.43;3.10;;;13.60;61.60;;;;;;5092541;28;20073;-69
2021/12/27 04:15:40;;;;;;;14.48;2.67;;;13.60;61.40;;;;;;5093664;28;20408;-69
2021/12/27 04:18:11;;;;;;;8.32;2.22;;;13.70;60.70;;;;;;5091929;28;20069;-70
2021/12/27 04:20:38;;;;;;;9.82;2.22;;;13.70;60.80;;;;;;5090626;28;20107;-69
2021/12/27 04:23:05;;;;;;;13.35;2.60;;;13.70;60.80;;;;;;5091173;28;20096;-69
2021/12/27 04:25:31;;;;;;;10.57;2.45;;;13.70;61.00;;;;;;5090241;28;20072;-68
2021/12/27 04:27:58;;;;;;;10.40;2.38;;;13.70;61.10;;;;;;5091480;28;20598;-67
2021/12/27 04:30:25;;;;;;;11.27;3.30;;;13.70;61.30;;;;;;5091846;28;20165;-70
2021/12/27 04:32:51;;;;;;;9.77;2.97;;;;;;;;;;5091462;28;20197;-69
2021/12/27 04:35:20;;;;;;;12.80;2.50;;;13.70;93.10;;;;;;5089240;28;20039;-69
2021/12/27 04:37:47;;;;;;;9.90;2.60;;;13.70;61.30;;;;;;5090452;28;20112;-68
2021/12/27 04:40:15;;;;;;;17.08;2.60;;;13.70;61.20;;;;;;5092421;28;20092;-69
2021/12/27 04:42:45;;;;;;;11.65;3.15;;;13.60;61.20;;;;;;5093215;28;20155;-70
2021/12/27 04:45:13;;;;;;;9.80;2.70;;;13.70;61.30;;;;;;5091125;28;20096;-70
2021/12/27 04:47:39;;;;;;;11.82;2.80;;;13.60;61.40;;;;;;5096844;28;20073;-69
2021/12/27 04:50:06;;;;;;;;;;;13.60;61.50;;;;;;5092613;28;20094;-70
2021/12/27 04:52:32;;;;;;;11.27;2.50;;;13.60;61.50;;;;;;5092479;28;19956;-71
2021/12/27 04:54:59;;;;;;;10.00;2.30;;;13.60;61.60;;;;;;5092014;28;20088;-67
2021/12/27 04:57:25;;;;;;;;;;;13.60;85.80;;;;;;5092717;28;20016;-69
2021/12/27 04:59:51;;;;;;;11.77;2.65;;;13.50;61.20;;;;;;5090805;28;20234;-68
2021/12/27 05:02:17;;;;;;;;;;;13.50;61.80;;;;;;5092824;28;20499;-69
2021/12/27 05:04:44;;;;;;;7.40;1.95;;;13.50;61.80;;;;;;5092234;28;19960;-68
2021/12/27 05:07:10;;;;;;;11.32;2.90;;;13.50;62.20;;;;;;5094032;28;20446;-70
2021/12/27 05:09:37;;;;;;;6.80;2.30;;;13.50;62.40;;;;;;5090694;28;20584;-68
2021/12/27 05:12:03;;;;;;;8.18;2.45;;;13.50;62.80;;;;;;5099556;28;20088;-70
2021/12/27 05:14:30;;;;;;;12.40;2.35;;;13.40;62.90;;;;;;5092066;28;20077;-68
2021/12/27 05:16:56;;;;;;;7.82;1.90;;;13.40;63.20;;;;;;5111195;28;20099;-69
2021/12/27 05:19:22;;;;;;;;;;;13.30;63.30;;;;;;5106547;28;20092;-68
2021/12/27 05:21:49;;;;;;;11.20;2.60;;;13.20;63.80;;;;;;5093937;28;19956;-69
2021/12/27 05:24:15;;;;;;;;;;;13.10;64.10;;;;;;5091256;28;20069;-70
2021/12/27 05:26:41;;;;;;;9.05;1.80;;;;;;;;;;5090788;28;19965;-68
2021/12/27 05:29:08;;;;;;;8.05;2.17;;;13.10;80.40;;;;;;5090575;28;20078;-68
2021/12/27 05:31:34;;;;;;;;;;;13.10;64.40;;;;;;5090862;28;20112;-69
2021/12/27 05:34:00;;;;;;;11.45;2.50;;;13.10;64.10;;;;;;5090502;28;19964;-69
2021/12/27 05:36:27;;;;;;;11.38;2.13;;;13.10;63.90;;;;;;5092048;28;20566;-68
2021/12/27 05:38:53;;;;;;;;;;;13.20;63.50;;;;;;5091845;28;20081;-69
2021/12/27 05:41:19;;;;;;;6.63;1.90;;;13.20;63.20;;;;;;5090282;28;19963;-70
2021/12/27 05:43:45;;;;;;;;;;;13.10;63.20;;;;;;5092478;28;20197;-71
2021/12/27 05:46:12;;;;;;;8.45;1.88;;;13.10;64.20;;;;;;5094922;28;20067;-69
2021/12/27 05:48:38;;;;;;;8.40;2.25;;;13.00;63.20;;;;;;5102840;28;20080;-68
2021/12/27 05:51:04;;;;;;;;;;;13.00;62.80;;;;;;5091699;28;20524;-67
2021/12/27 05:53:31;;;;;;;11.88;2.33;;;13.00;62.50;;;;;;5089929;28;19978;-69
2021/12/27 05:55:57;;;;;;;;;;;12.90;62.40;;;;;;5091893;28;20121;-68
2021/12/27 05:58:25;;;;;;;7.47;1.70;;;12.90;62.80;;;;;;5089973;28;20415;-68
2021/12/27 06:03:26;;;;;;;7.63;2.50;;;12.70;60.80;;;;;;5156150;22;20141;-68
2021/12/27 06:05:52;;;;;;;;;;;12.70;60.40;;;;;;4994559;28;20082;-68
2021/12/27 06:08:19;;;;;;;8.80;2.00;;;12.70;60.00;;;;;;4999856;28;20351;-68
2021/12/27 06:10:45;;;;;;;7.47;2.58;;;12.60;59.60;;;;;;5008723;28;20082;-69
2021/12/27 06:13:11;;;;;;;;;;;12.60;59.30;;;;;;4998883;28;20117;-69
2021/12/27 06:15:38;;;;;;;6.80;1.83;;;12.60;59.20;;;;;;5010046;28;19982;-70
2021/12/27 06:18:04;;;;;;;;;;;12.60;58.30;;;;;;5010744;28;20143;-69
2021/12/27 06:20:30;;;;;;;9.93;1.67;;;12.60;57.50;;;;;;5008827;28;19997;-67
2021/12/27 06:22:59;;;;;;;4.72;1.42;;;12.70;57.20;;;;;;4999857;28;20081;-69
2021/12/27 06:25:26;;;;;;;6.05;1.70;;;12.60;57.00;;;;;;5009636;28;20576;-69
2021/12/27 06:27:53;;;;;;;5.28;1.52;;;12.60;56.80;;;;;;5002143;28;20847;-70
2021/12/27 06:30:20;;;;;;;5.57;1.55;;;12.60;56.80;;;;;;5007690;28;20105;-67
2021/12/27 06:32:47;;;;;;;5.82;1.48;;;12.50;56.40;;;;;;5008725;28;20135;-68
2021/12/27 06:35:15;;;;;;;8.10;2.80;;;12.50;56.40;;;;;;5008711;28;20165;-68
2021/12/27 06:37:43;;;;;;;10.63;4.07;;;12.50;56.10;;;;;;5002615;28;20210;-70
2021/12/27 06:40:12;;;;;;;5.35;1.83;;;12.40;56.10;;;;;;4991104;28;20075;-69
2021/12/27 06:42:39;;;;;;;4.57;1.20;;;12.40;56.00;;;;;;5004509;28;20075;-71
2021/12/27 06:45:06;;;;;;;6.15;1.73;;;12.40;55.70;;;;;;5008479;28;20078;-70
2021/12/27 06:47:33;;;;;;;4.55;1.42;;;12.30;55.80;;;;;;5009056;28;20487;-69
2021/12/27 06:50:00;;;;;;;;;;;12.30;55.60;;;;;;5009285;28;20066;-71
2021/12/27 06:52:26;;;;;;;7.30;1.55;;;12.30;55.60;;;;;;5008372;28;20048;-70
2021/12/27 06:54:52;;;;;;;;;;;12.30;56.00;;;;;;4999761;28;20082;-68
2021/12/27 06:57:20;;;;;;;5.00;1.70;;;12.30;56.30;;;;;;5001185;28;20343;-69
2021/12/27 06:59:48;;;;;;;10.30;1.70;;;12.30;56.70;;;;;;5000964;28;20491;-70
2021/12/27 07:02:14;;;;;;;8.65;1.88;;;12.20;57.00;;;;;;5003320;28;20153;-69
2021/12/27 07:04:41;;;;;;;7.63;1.95;;;12.10;57.30;;;;;;4997108;28;20075;-70
2021/12/27 07:07:07;;;;;;;;;;;12.10;57.60;;;;;;4998942;28;20120;-69
2021/12/27 07:09:33;;;;;;;6.20;2.15;;;12.10;57.70;;;;;;4995303;28;19958;-69
2021/12/27 07:11:59;;;;;;;;;;;12.00;58.30;;;;;;4995343;28;20071;-70
2021/12/27 07:14:26;;;;;;;9.57;2.10;;;11.90;58.60;;;;;;4999745;28;19974;-68
2021/12/27 07:16:52;;;;;;;;;;;11.80;58.80;;;;;;4994950;28;20468;-70
2021/12/27 07:19:18;;;;;;;5.35;2.15;;;11.80;59.50;;;;;;4997089;28;20344;-69
2021/12/27 07:21:45;;;;;;;8.23;1.75;;;11.70;59.80;;;;;;4996825;28;20090;-68
2021/12/27 07:24:11;;;;;;;;;;;11.80;59.30;;;;;;4994993;28;20436;-70
2021/12/27 07:26:37;;;;;;;7.75;1.73;;;11.70;59.10;;;;;;4996532;28;19958;-69
2021/12/27 07:29:04;;;;;;;5.53;1.50;;;11.70;59.00;;;;;;4995430;28;20078;-68
2021/12/27 07:31:30;;;;;;;;;;;11.70;58.20;;;;;;4996095;28;20105;-68
2021/12/27 07:33:56;;;;;;;4.22;1.50;;;11.80;57.10;;;;;;4996265;28;20006;-69
2021/12/27 07:36:22;;;;;;;;;;;11.70;57.20;;;;;;4994064;28;20082;-69
2021/12/27 07:38:49;;;;;;;6.43;1.77;;;11.70;57.30;;;;;;4996830;28;20081;-72
2021/12/27 07:41:15;;;;;;;7.70;2.40;;;11.70;57.70;;;;;;4997486;28;20524;-68
2021/12/27 07:43:42;;;;;;;9.55;2.25;;;11.60;57.90;;;;;;4997039;28;20097;-67
2021/12/27 07:46:08;;;;;;;;;;;11.70;58.20;;;;;;4993584;28;20125;-68
2021/12/27 07:48:34;;;;;;;6.25;1.90;;;11.60;59.10;;;;;;4996647;28;20001;-63
2021/12/27 07:51:01;;;;;;;8.50;2.38;;;11.70;60.00;;;;;;4998124;28;20491;-67
2021/12/27 07:53:27;;;;;;;;;;;11.60;59.80;;;;;;4995991;28;20094;-66
2021/12/27 07:55:53;;;;;;;9.82;2.45;;;11.70;59.40;;;;;;4994751;28;19982;-66
2021/12/27 07:58:20;;;;;;;11.98;2.30;;;11.70;59.40;;;;;;4996016;28;20544;-66
2021/12/27 08:00:50;;;;;;;;;;;11.60;59.00;;;;;;4995075;28;20094;-67
2021/12/27 08:03:20;;;;;;;8.27;2.67;;;11.60;59.20;;;;;;4995267;28;19986;-66
2021/12/27 08:05:47;;;;;;;12.80;3.50;;;11.50;59.40;;;;;;4992614;28;20087;-65
2021/12/27 08:08:14;;;;;;;9.23;3.53;;;11.50;59.60;;;;;;4993242;28;20079;-66
2021/12/27 08:10:41;;;;;;;12.93;3.88;;;11.50;67.30;;;;;;4994538;28;20412;-66
2021/12/27 08:13:08;;;;;;;11.52;3.97;;;11.50;60.50;;;;;;4994460;28;20075;-65
2021/12/27 08:15:34;;;;;;;;;;;11.50;60.60;;;;;;4994712;28;20186;-66
2021/12/27 08:18:00;;;;;;;13.02;4.85;;;11.50;61.40;;;;;;4992872;28;19958;-67
2021/12/27 08:20:26;;;;;;;;;;;11.40;61.70;;;;;;4990477;28;20521;-66
2021/12/27 08:22:53;;;;;;;15.23;5.25;;;11.30;62.20;;;;;;4995704;28;19962;-66
2021/12/27 08:25:19;;;;;;;;;;;11.30;62.60;;;;;;4994529;28;20071;-66
2021/12/27 08:27:47;;;;;;;10.63;3.90;;;11.20;61.80;;;;;;4992608;28;20061;-66
2021/12/27 08:30:14;;;;;;;11.40;3.80;;;11.10;62.40;;;;;;4996296;28;20079;-65
2021/12/27 08:32:43;;;;;;;14.25;6.13;;;11.10;61.90;;;;;;5005239;28;20071;-67
2021/12/27 08:35:11;;;;;;;19.33;7.45;;;11.10;62.90;;;;;;4994533;28;20075;-66
2021/12/27 08:37:38;;;;;;;13.10;6.15;;;11.10;62.80;;;;;;4993592;28;20071;-67
2021/12/27 08:40:07;;;;;;;16.40;4.93;;;11.10;62.70;;;;;;4996231;28;20769;-66
2021/12/27 08:42:33;;;;;;;11.48;3.50;;;11.00;62.90;;;;;;4993794;28;20079;-66
2021/12/27 08:45:00;;;;;;;11.10;2.90;;;11.10;63.10;;;;;;4993463;28;20080;-67
2021/12/27 08:47:26;;;;;;;6.88;2.08;;;11.10;62.80;;;;;;4994603;28;20163;-66
2021/12/27 08:49:53;;;;;;;;;;;11.20;62.70;;;;;;4995879;28;20077;-66
2021/12/27 08:52:19;;;;;;;11.75;2.10;;;11.10;62.90;;;;;;4997821;28;19962;-68
2021/12/27 08:54:45;;;;;;;7.60;3.17;;;11.00;63.70;;;;;;4995280;28;20079;-67
2021/12/27 08:57:12;;;;;;;10.88;5.15;;;11.00;64.10;;;;;;4992568;28;20098;-66
2021/12/27 08:59:39;;;;;;;11.48;5.88;;;10.90;90.40;;;;;;4995483;28;20046;-68
2021/12/27 09:02:06;;;;;;;10.88;4.50;;;10.80;80.90;;;;;;4994478;28;20090;-67
2021/12/27 09:04:33;;;;;;;10.13;3.88;;;10.80;64.00;;;;;;4993703;28;20050;-66
2021/12/27 09:06:59;;;;;;;;;;;10.80;64.10;;;;;;4997163;28;20078;-67
2021/12/27 09:09:25;;;;;;;13.68;2.78;;;10.80;64.20;;;;;;4995112;28;20085;-66
2021/12/27 09:11:51;;;;;;;;;;;10.70;64.30;;;;;;4994871;28;20071;-66
2021/12/27 09:14:18;;;;;;;7.78;2.28;;;10.70;64.60;;;;;;4994533;28;19964;-68
2021/12/27 09:16:44;;;;;;;;;;;10.80;65.20;;;;;;4994840;28;20149;-66
2021/12/27 09:19:14;;;;;;;8.45;2.40;;;10.80;65.30;;;;;;4994047;28;20329;-67
2021/12/27 09:21:41;;;;;;;10.48;2.33;;;10.70;65.20;;;;;;4994420;28;20073;-66
2021/12/27 09:24:08;;;;;;;5.68;1.60;;;10.70;88.00;;;;;;4994996;28;20115;-66
2021/12/27 09:26:35;;;;;;;;;;;10.80;91.60;;;;;;4994857;28;20043;-66
2021/12/27 09:29:02;;;;;;;3.80;1.50;;;10.90;72.40;;;;;;4997219;28;19910;-66
2021/12/27 09:31:31;;;;;;;6.18;1.90;;;10.90;64.50;;;;;;4992724;28;20117;-66
2021/12/27 09:33:58;;;;;;;10.18;2.03;;;10.80;64.20;;;;;;4996472;28;20121;-68
2021/12/27 09:36:24;;;;;;;7.55;1.90;;;10.70;64.20;;;;;;4994372;28;20105;-68
2021/12/27 09:38:50;;;;;;;;;;;10.70;64.60;;;;;;4992366;28;20138;-65
2021/12/27 09:41:19;;;;;;;7.80;1.60;;;10.70;65.50;;;;;;4992743;28;19966;-67
2021/12/27 09:43:46;;;;;;;6.30;1.33;;;10.80;64.90;;;;;;4995626;28;20074;-66
2021/12/27 09:46:13;;;;;;;4.38;1.30;;;10.70;65.30;;;;;;4993155;28;20094;-66
2021/12/27 09:48:40;;;;;;;5.70;1.48;;;10.70;64.80;;;;;;4995587;28;20120;-66
2021/12/27 09:51:20;;;;;;;4.93;1.20;;;10.60;65.30;;;;;;4993699;28;20081;-65
2021/12/27 09:53:48;;;;;;;6.05;1.30;;;10.60;65.30;;;;;;4993686;28;20106;-67
2021/12/27 09:56:14;;;;;;;6.28;1.40;;;10.50;65.90;;;;;;4991653;28;20456;-67
2021/12/27 09:58:41;;;;;;;4.93;1.25;;;10.50;65.80;;;;;;4994035;28;20078;-66
2021/12/27 10:01:07;;;;;;;;;;;10.50;66.20;;;;;;4993652;28;20094;-66
2021/12/27 10:04:01;;;;;;;12.23;1.63;;;10.50;65.40;;;;;;4994213;28;20091;-66
2021/12/27 10:06:29;;;;;;;9.30;1.65;;;10.50;66.30;;;;;;4990623;28;20099;-66
2021/12/27 10:09:07;;;;;;;5.72;1.50;;;10.50;67.00;;;;;;4990831;28;20095;-65
2021/12/27 10:11:37;;;;;;;6.50;1.50;;;10.50;66.40;;;;;;4993903;28;20078;-66
2021/12/27 10:14:16;;;;;;;7.43;1.50;;;10.50;66.40;;;;;;4993474;28;20590;-66
2021/12/27 10:16:54;;;;;;;6.70;1.58;;;10.40;66.50;;;;;;4992396;28;20090;-66
2021/12/27 10:19:23;;;;;;;5.00;1.50;;;10.30;66.60;;;;;;4992829;28;20560;-66
2021/12/27 10:21:52;;;;;;;3.92;1.50;;;10.30;67.10;;;;;;4993326;28;20075;-66
2021/12/27 10:24:29;;;;;;;6.53;1.40;;;10.30;68.00;;;;;;4994067;28;20532;-67
2021/12/27 10:26:59;;;;;;;6.88;1.48;;;10.40;67.40;;;;;;4990608;28;20524;-67
2021/12/27 10:29:31;;;;;;;7.93;1.20;;;10.30;67.20;;;;;;4993513;28;20089;-66
2021/12/27 10:32:16;;;;;;;7.10;1.67;;;10.30;68.40;;;;;;4992267;28;20090;-65
2021/12/27 10:34:44;;;;;;;7.22;1.30;;;10.10;68.40;;;;;;4999199;28;20075;-66
2021/12/27 10:37:31;;;;;;;12.07;1.63;;;10.00;69.70;;;;;;4995213;28;20101;-65
2021/12/27 10:40:04;;;;;;;13.30;1.52;;;10.00;70.50;;;;;;4996459;28;20059;-65
2021/12/27 10:42:32;;;;;;;6.65;1.50;;;;;;;;;;4996996;28;20388;-67
2021/12/27 10:45:01;;;;;;;9.55;1.90;;;10.10;97.50;;;;;;4996637;28;20022;-67
2021/12/27 10:47:35;;;;;;;6.25;1.90;;;10.00;70.70;;;;;;4997798;28;20091;-63
2021/12/27 10:50:06;;;;;;;8.68;2.78;;;10.00;71.70;;;;;;4998098;28;20102;-65
2021/12/27 10:52:46;;;;;;;18.75;3.42;;;10.00;71.40;;;;;;4994989;28;20086;-67
2021/12/27 10:55:15;;;;;;;21.67;3.30;;;10.60;90.20;;;;;;4996016;28;20070;-67
2021/12/27 10:57:42;;;;;;;14.30;3.60;;;10.20;70.90;;;;;;4995639;28;20235;-65
2021/12/27 11:00:21;;;;;;;10.77;3.30;;;10.20;71.40;;;;;;4996604;28;20071;-66
2021/12/27 11:02:48;;;;;;;11.20;3.20;;;10.20;72.00;;;;;;4997118;28;20566;-66
2021/12/27 11:05:24;;;;;;;18.23;3.95;;;10.20;72.80;;;;;;4993948;28;20161;-65
2021/12/27 11:07:53;;;;;;;13.77;3.97;;;10.20;72.70;;;;;;4996745;28;20074;-66
2021/12/27 11:10:20;;;;;;;11.02;3.45;;;10.10;72.60;;;;;;4993322;28;20525;-65
2021/12/27 11:12:48;;;;;;;15.48;4.15;;;10.00;91.30;;;;;;4996767;28;20448;-67
2021/12/27 11:15:15;;;;;;;15.43;5.20;;;10.00;96.70;;;;;;4997481;28;20093;-66
2021/12/27 11:17:42;;;;;;;12.85;4.60;;;10.00;74.10;;;;;;4999511;28;20153;-67
2021/12/27 11:20:11;;;;;;;18.33;4.97;;;10.10;74.20;;;;;;4998828;28;20227;-66
2021/12/27 11:22:43;;;;;;;15.93;4.50;;;10.20;74.30;;;;;;4996943;28;20161;-67
2021/12/27 11:25:23;;;;;;;14.25;5.15;;;10.20;95.80;;;;;;4996808;28;20217;-66
2021/12/27 11:27:50;;;;;;;15.60;5.00;;;10.20;74.30;;;;;;4994766;28;20026;-66
2021/12/27 11:30:23;;;;;;;17.63;5.15;;;10.20;74.50;;;;;;4994281;28;20070;-65
2021/12/27 11:33:19;;;;;;;24.00;5.63;;;10.20;75.10;;;;;;4976838;28;20507;-65
2021/12/27 11:35:52;;;;;;;24.80;5.63;;;10.10;75.70;;;;;;4997444;28;20178;-66
2021/12/27 11:38:31;;;;;;;17.85;6.07;;;10.20;75.80;;;;;;4995317;28;20067;-67
2021/12/27 11:40:59;;;;;;;23.73;6.18;;;10.10;75.60;;;;;;4995748;28;20077;-65
2021/12/27 11:43:47;;;;;;;12.90;5.43;;;10.10;75.30;;;;;;4996317;28;20071;-65
2021/12/27 11:46:14;;;;;;;17.25;5.47;;;10.10;74.70;;;;;;4993372;28;20178;-67
2021/12/27 11:48:49;;;;;;;16.50;4.90;;;10.10;75.30;;;;;;4997634;28;20078;-67
2021/12/27 11:51:32;;;;;;;21.27;4.97;;;10.20;74.80;;;;;;4996734;28;20555;-65
2021/12/27 11:54:00;;;;;;;19.27;4.97;;;10.10;74.60;;;;;;4994481;28;20074;-67
2021/12/27 11:56:39;;;;;;;14.45;5.32;;;10.10;73.50;;;;;;4995278;28;20185;-66
2021/12/27 11:59:26;;;;;;;17.15;5.50;;;10.10;74.60;;;;;;4994621;28;20536;-67
2021/12/27 12:01:58;;;;;;;18.80;5.78;;;10.00;74.60;;;;;;4994577;28;20131;-67
2021/12/27 12:04:45;;;;;;;21.17;6.13;;;10.00;74.80;;;;;;4995088;28;20076;-66
2021/12/27 12:07:31;;;;;;;;;;;9.90;74.70;;;;;;4994138;28;20071;-67
2021/12/27 12:09:58;;;;;;;22.25;8.80;;;9.80;75.30;;;;;;4993792;28;19966;-66
2021/12/27 12:12:28;;;;;;;17.60;7.22;;;9.80;76.60;;;;;;4993022;28;20492;-67
2021/12/27 12:14:58;;;;;;;22.60;8.07;;;9.80;76.30;;;;;;4993186;28;20149;-67
2021/12/27 12:17:40;;;;;;;20.73;6.85;;;9.80;97.70;;;;;;4994848;28;20030;-66
2021/12/27 12:20:24;;;;;;;22.00;7.07;;;9.80;76.20;;;;;;4993566;28;20537;-67
2021/12/27 12:22:59;;;;;;;26.75;7.57;;;9.80;76.90;;;;;;4993024;28;20074;-67
2021/12/27 12:25:27;;;;;;;21.88;8.15;;;9.90;77.00;;;;;;4996570;28;20482;-68
2021/12/27 12:27:57;;;;;;;19.90;7.28;;;9.80;96.20;;;;;;4995588;28;20026;-67
2021/12/27 12:30:27;;;;;;;20.40;8.05;;;9.90;75.70;;;;;;4996265;28;20113;-67
2021/12/27 12:33:07;;;;;;;24.25;8.63;;;9.90;75.80;;;;;;4995421;28;20222;-69
2021/12/27 12:35:57;;;;;;;25.30;7.93;;;9.90;75.50;;;;;;4993885;28;20090;-68
2021/12/27 12:38:32;;;;;;;22.77;7.88;;;10.00;76.30;;;;;;4995837;28;20079;-68
2021/12/27 12:41:11;;;;;;;18.95;7.70;;;10.40;86.80;;;;;;4992850;28;20047;-67
2021/12/27 12:43:40;;;;;;;25.60;8.70;;;;;;;;;;4992668;28;20026;-67
2021/12/27 12:46:18;;;;;;;18.52;7.93;;;10.20;93.90;;;;;;4994278;28;20127;-65
2021/12/27 12:48:57;;;;;;;25.33;7.65;;;10.20;95.30;;;;;;4995533;28;20403;-66
2021/12/27 12:51:38;;;;;;;23.92;8.00;;;10.20;74.70;;;;;;4995002;28;20495;-68
2021/12/27 12:54:24;;;;;;;23.48;7.88;;;10.30;79.50;;;;;;4978988;28;20075;-67
2021/12/27 12:56:53;;;;;;;25.30;7.47;;;10.30;75.20;;;;;;4977673;28;20134;-66
2021/12/27 12:59:26;;;;;;;19.73;7.03;;;10.20;75.20;;;;;;4979160;28;20081;-66
2021/12/27 13:01:55;;;;;;;23.92;7.45;;;10.20;74.70;;;;;;4972912;28;20122;-67
2021/12/27 13:04:21;;;;;;;14.98;5.90;;;10.20;74.90;;;;;;4978686;28;20079;-66
2021/12/27 13:06:47;;;;;;;;;;;10.20;73.80;;;;;;4995517;28;20132;-67
2021/12/27 13:09:13;;;;;;;25.00;6.50;;;10.40;85.90;;;;;;4994412;28;20117;-67
2021/12/27 13:11:40;;;;;;;;;;;10.20;73.50;;;;;;4993567;28;20075;-66
2021/12/27 13:14:10;;;;;;;15.43;5.00;;;10.20;73.60;;;;;;4996649;28;19966;-66
2021/12/27 13:16:36;;;;;;;13.40;4.97;;;10.20;73.80;;;;;;4994545;28;20165;-67